Time;durP1;ratioP1;P1;durP2;ratioP2;P2;SDS_P1;SDS_P2;PMS_P1;PMS_P2;Temp;Humidity;BMP_temperature;BMP_pressure;BME280_temperature;BME280_humidity;BME280_pressure;Samples;Min_cycle;Max_cycle;Signal;HPM_P1;HPM_P2
2022/08/16 00:01:59;;;;;;;12.75;8.35;;;;;;;18.84;79.40;100532.81;5030064;28;20068;-70
2022/08/16 00:04:24;;;;;;;12.95;8.98;;;;;;;18.77;79.71;100536.81;5033177;28;20027;-71
2022/08/16 00:06:49;;;;;;;15.93;9.65;;;;;;;18.70;80.20;100530.16;5033844;28;20105;-71
2022/08/16 00:09:15;;;;;;;15.43;9.23;;;;;;;18.70;79.81;100523.09;5033321;28;20435;-71
2022/08/16 00:11:43;;;;;;;14.48;9.40;;;;;;;18.71;80.86;100529.22;5034233;28;20029;-71
2022/08/16 00:14:12;;;;;;;16.65;8.80;;;;;;;18.73;79.86;100535.28;5036417;28;20036;-71
2022/08/16 00:16:38;;;;;;;14.40;9.40;;;;;;;18.67;80.67;100532.97;5036456;28;20036;-71
2022/08/16 00:19:04;;;;;;;17.52;9.48;;;;;;;18.63;80.76;100540.25;5033414;28;20025;-71
2022/08/16 00:21:30;;;;;;;15.57;9.20;;;;;;;18.59;80.97;100527.34;5042406;28;20029;-71
2022/08/16 00:23:56;;;;;;;16.52;9.70;;;;;;;18.51;81.34;100537.50;5034048;28;20420;-71
2022/08/16 00:26:21;;;;;;;20.23;9.15;;;;;;;18.48;81.48;100541.22;5031491;28;20037;-71
2022/08/16 00:28:46;;;;;;;14.15;9.90;;;;;;;18.46;81.55;100554.47;5033863;28;20021;-71
2022/08/16 00:31:12;;;;;;;18.42;9.52;;;;;;;18.47;81.71;100555.31;5031851;28;20044;-71
2022/08/16 00:33:37;;;;;;;18.67;8.93;;;;;;;18.48;81.72;100555.25;5032809;28;20025;-71
2022/08/16 00:36:03;;;;;;;22.25;9.60;;;;;;;18.48;81.67;100552.59;5033975;28;20025;-71
2022/08/16 00:38:28;;;;;;;15.50;8.43;;;;;;;18.51;81.49;100555.97;5031539;28;20381;-71
2022/08/16 00:40:54;;;;;;;14.43;9.18;;;;;;;18.44;80.92;100544.94;5036502;28;20033;-71
2022/08/16 00:43:34;;;;;;;19.92;9.40;;;;;;;18.47;80.26;100550.91;5032917;28;20133;-71
2022/08/16 00:46:32;;;;;;;17.40;9.80;;;;;;;18.40;81.41;100554.84;5034176;28;20027;-71
2022/08/16 00:48:58;;;;;;;24.48;9.75;;;;;;;18.32;82.28;100553.63;5025712;28;20095;-71
2022/08/16 00:51:25;;;;;;;15.45;9.50;;;;;;;18.27;82.36;100553.91;5032472;28;20424;-71
2022/08/16 00:53:52;;;;;;;17.23;9.88;;;;;;;18.26;83.06;100554.84;5031744;28;20072;-71
2022/08/16 00:56:22;;;;;;;13.20;10.50;;;;;;;18.27;83.05;100553.06;5033004;28;20037;-71
2022/08/16 00:58:49;;;;;;;13.57;10.10;;;;;;;18.23;83.37;100557.66;5032527;28;20053;-71
2022/08/16 01:01:16;;;;;;;20.83;9.70;;;;;;;18.26;83.08;100552.22;5031605;28;20080;-71
2022/08/16 01:03:45;;;;;;;15.80;10.20;;;;;;;18.21;83.93;100559.53;5033449;28;20033;-71
2022/08/16 01:06:11;;;;;;;19.80;10.20;;;;;;;18.12;84.05;100549.56;5034271;28;20448;-71
2022/08/16 01:08:39;;;;;;;14.95;10.77;;;;;;;18.12;84.83;100560.09;5031264;28;20067;-71
2022/08/16 01:11:05;;;;;;;14.55;10.70;;;;;;;18.05;84.79;100553.47;5033544;28;20041;-71
2022/08/16 01:13:34;;;;;;;11.68;10.10;;;;;;;18.08;85.38;100564.69;5032509;28;20037;-71
2022/08/16 01:16:03;;;;;;;12.57;10.40;;;;;;;18.05;85.56;100566.66;5032638;28;20033;-71
2022/08/16 01:18:41;;;;;;;13.90;9.85;;;;;;;18.05;84.87;100558.75;5033059;28;20033;-71
2022/08/16 01:21:34;;;;;;;14.02;10.25;;;;;;;18.06;83.98;100563.94;5042840;28;20029;-70
2022/08/16 01:24:41;;;;;;;14.60;10.60;;;;;;;18.04;83.93;100557.91;5018945;28;20048;-71
2022/08/16 01:27:14;;;;;;;15.00;11.07;;;;;;;18.02;85.72;100559.81;5029001;28;20087;-71
2022/08/16 01:29:58;;;;;;;15.77;10.93;;;;;;;18.01;85.28;100561.56;5030806;28;20052;-71
2022/08/16 01:32:23;;;;;;;14.85;10.63;;;;;;;17.99;86.22;100565.25;5032376;28;20029;-71
2022/08/16 01:34:49;;;;;;;12.65;10.27;;;;;;;17.98;86.22;100564.41;5037037;28;20029;-71
2022/08/16 01:37:14;;;;;;;16.80;11.05;;;;;;;18.01;85.84;100552.81;5034634;28;20385;-71
2022/08/16 01:39:41;;;;;;;15.23;10.95;;;;;;;17.96;86.05;100558.38;5031305;28;20436;-71
2022/08/16 01:42:08;;;;;;;14.55;10.45;;;;;;;17.90;86.54;100550.81;5033342;28;20424;-71
2022/08/16 01:44:35;;;;;;;12.27;10.73;;;;;;;18.00;85.45;100557.25;5035518;28;20041;-71
2022/08/16 01:47:00;;;;;;;14.35;11.35;;;;;;;18.00;86.32;100556.41;5037777;28;20044;-70
2022/08/16 01:49:32;;;;;;;16.27;11.80;;;;;;;18.02;86.07;100560.66;5033424;28;20029;-71
2022/08/16 01:52:01;;;;;;;16.00;11.38;;;;;;;17.98;86.09;100553.84;5046248;28;20039;-71
2022/08/16 01:54:27;;;;;;;13.40;11.75;;;;;;;17.96;86.29;100555.72;5043261;28;20029;-71
2022/08/16 01:56:52;;;;;;;14.15;11.65;;;;;;;17.95;86.22;100559.31;5037612;28;20020;-71
2022/08/16 01:59:18;;;;;;;15.18;11.30;;;;;;;17.94;86.27;100554.97;5035222;28;20111;-71
2022/08/16 02:01:47;;;;;;;15.13;12.63;;;;;;;17.88;86.33;100565.84;5041716;28;20381;-71
2022/08/16 02:04:12;;;;;;;15.82;12.63;;;;;;;17.87;86.53;100561.53;5042267;28;20036;-71
2022/08/16 02:06:39;;;;;;;15.13;11.85;;;;;;;17.87;86.86;100561.53;5051015;28;20106;-71
2022/08/16 02:09:06;;;;;;;15.02;12.55;;;;;;;17.90;86.75;100566.63;5041181;28;20026;-71
2022/08/16 02:11:33;;;;;;;15.52;12.98;;;;;;;17.87;86.59;100569.44;5037354;28;20033;-71
2022/08/16 02:13:58;;;;;;;18.73;13.15;;;;;;;17.83;86.81;100570.56;5034281;28;20037;-71
2022/08/16 02:16:25;;;;;;;18.58;13.27;;;;;;;17.78;86.98;100567.34;5041996;28;20100;-71
2022/08/16 02:18:51;;;;;;;14.65;12.60;;;;;;;17.80;86.54;100562.00;5043115;28;20029;-71
2022/08/16 02:21:17;;;;;;;18.48;12.85;;;;;;;17.72;86.77;100554.47;5039664;28;20037;-71
2022/08/16 02:23:44;;;;;;;15.18;12.52;;;;;;;17.76;87.21;100563.94;5034800;28;20033;-71
2022/08/16 02:26:09;;;;;;;17.60;14.20;;;;;;;17.74;87.25;100564.00;5033958;28;20470;-71
2022/08/16 02:28:36;;;;;;;16.67;14.20;;;;;;;17.69;87.02;100562.56;5035826;28;20112;-71
2022/08/16 02:31:04;;;;;;;22.40;14.48;;;;;;;17.67;87.21;100570.56;5043512;28;20033;-71
2022/08/16 02:33:30;;;;;;;17.17;13.88;;;;;;;17.62;87.82;100563.84;5030356;28;20121;-71
2022/08/16 02:35:55;;;;;;;18.98;14.77;;;;;;;17.58;87.86;100552.63;5034691;28;20097;-71
2022/08/16 02:38:21;;;;;;;17.30;14.15;;;;;;;17.54;87.92;100551.13;5042796;28;20082;-71
2022/08/16 02:40:47;;;;;;;19.58;13.65;;;;;;;17.52;88.25;100548.56;5034994;28;20036;-71
2022/08/16 02:43:12;;;;;;;16.13;14.40;;;;;;;17.48;88.75;100554.94;5034615;28;20064;-71
2022/08/16 02:45:37;;;;;;;19.15;15.05;;;;;;;17.45;88.77;100555.13;5041861;28;20117;-71
2022/08/16 02:48:04;;;;;;;18.95;14.40;;;;;;;17.43;89.05;100558.75;5039624;28;20029;-71
2022/08/16 02:50:29;;;;;;;19.38;14.38;;;;;;;17.41;88.89;100550.97;5043603;28;20024;-71
2022/08/16 02:52:55;;;;;;;17.67;13.73;;;;;;;17.35;89.33;100542.56;5036907;28;20025;-71
2022/08/16 02:55:21;;;;;;;19.10;14.93;;;;;;;17.34;89.17;100552.25;5030126;28;20029;-71
2022/08/16 02:57:46;;;;;;;18.98;14.48;;;;;;;17.30;90.18;100548.09;5047717;28;20032;-71
2022/08/16 03:00:13;;;;;;;24.98;15.07;;;;;;;17.16;90.62;100546.22;5045602;28;20045;-71
2022/08/16 03:02:40;;;;;;;21.80;15.20;;;;;;;17.18;90.20;100536.44;5037032;28;20071;-71
2022/08/16 03:05:08;;;;;;;21.38;15.10;;;;;;;17.11;91.46;100536.88;5044309;28;20033;-71
2022/08/16 03:07:34;;;;;;;18.58;15.43;;;;;;;17.10;91.82;100546.53;5040760;28;20139;-71
2022/08/16 03:09:59;;;;;;;19.40;15.07;;;;;;;17.13;91.57;100549.00;5042489;28;20154;-70
2022/08/16 03:12:25;;;;;;;19.52;15.32;;;;;;;17.15;91.84;100546.31;5040382;28;20034;-71
2022/08/16 03:14:50;;;;;;;20.42;15.40;;;;;;;17.14;92.02;100542.81;5036172;28;20502;-71
2022/08/16 03:17:16;;;;;;;18.17;16.02;;;;;;;17.10;92.10;100541.28;5033768;28;20084;-71
2022/08/16 03:19:42;;;;;;;16.23;14.32;;;;;;;17.10;92.07;100538.63;5039060;28;20033;-71
2022/08/16 03:22:08;;;;;;;18.30;14.98;;;;;;;17.12;91.78;100543.84;5051543;28;20112;-71
2022/08/16 03:24:34;;;;;;;19.70;15.50;;;;;;;17.11;92.27;100544.78;5038236;28;20076;-71
2022/08/16 03:27:01;;;;;;;25.27;15.45;;;;;;;17.11;92.41;100537.72;5043206;28;20049;-71
2022/08/16 03:29:28;;;;;;;18.25;14.43;;;;;;;17.13;92.30;100545.53;5031766;28;20035;-71
2022/08/16 03:31:54;;;;;;;17.95;15.60;;;;;;;17.12;92.22;100542.06;5033824;28;20034;-71
2022/08/16 03:34:20;;;;;;;19.13;15.43;;;;;;;17.12;92.16;100546.47;5034290;28;20037;-71
2022/08/16 03:36:45;;;;;;;18.58;15.93;;;;;;;17.05;92.88;100549.44;5044458;28;20021;-71
2022/08/16 03:39:11;;;;;;;21.48;15.55;;;;;;;17.04;92.71;100555.66;5046449;28;20025;-71
2022/08/16 03:41:36;;;;;;;18.80;16.40;;;;;;;16.98;93.22;100555.97;5035059;28;20036;-71
2022/08/16 03:44:02;;;;;;;18.85;16.38;;;;;;;16.96;93.63;100560.47;5037375;28;20098;-70
2022/08/16 03:46:27;;;;;;;20.17;15.13;;;;;;;16.97;93.34;100562.19;5044806;28;20033;-71
2022/08/16 03:48:54;;;;;;;18.65;15.85;;;;;;;16.92;94.10;100566.84;5033347;28;20028;-71
2022/08/16 03:51:20;;;;;;;21.17;15.80;;;;;;;16.91;93.95;100565.16;5044699;28;20036;-71
2022/08/16 03:53:45;;;;;;;18.88;16.15;;;;;;;16.90;94.26;100563.44;5044106;28;20507;-71
2022/08/16 03:56:10;;;;;;;20.02;16.33;;;;;;;16.84;94.59;100572.53;5037408;28;20448;-71
2022/08/16 03:58:36;;;;;;;19.48;16.60;;;;;;;16.81;95.08;100577.13;5034375;28;20029;-71
2022/08/16 04:01:02;;;;;;;19.92;15.75;;;;;;;16.86;94.68;100567.19;5041108;28;20145;-71
2022/08/16 04:03:28;;;;;;;23.55;17.20;;;;;;;16.85;94.45;100571.59;5043099;28;20063;-71
2022/08/16 04:05:53;;;;;;;22.70;18.55;;;;;;;16.91;94.66;100573.06;5046562;28;20017;-70
2022/08/16 04:08:20;;;;;;;20.33;17.27;;;;;;;16.89;94.64;100574.91;5031543;28;20033;-71
2022/08/16 04:10:46;;;;;;;24.67;17.38;;;;;;;16.95;94.60;100576.38;5033218;28;20037;-70
2022/08/16 04:13:11;;;;;;;24.73;17.52;;;;;;;16.95;94.50;100579.84;5045406;28;20116;-71
2022/08/16 04:15:37;;;;;;;22.35;17.90;;;;;;;16.94;94.74;100578.16;5040394;28;20495;-71
2022/08/16 04:18:03;;;;;;;21.15;17.75;;;;;;;16.96;94.41;100586.81;5039799;28;20029;-71
2022/08/16 04:20:30;;;;;;;23.20;16.65;;;;;;;16.95;94.61;100585.13;5044425;28;20025;-71
2022/08/16 04:22:55;;;;;;;21.55;17.92;;;;;;;16.92;94.77;100585.28;5051874;28;20017;-71
2022/08/16 04:25:22;;;;;;;19.42;17.25;;;;;;;16.93;95.02;100584.34;5036700;28;20033;-71
2022/08/16 04:27:47;;;;;;;22.13;18.23;;;;;;;16.92;94.78;100584.44;5037164;28;20030;-71
2022/08/16 04:30:15;;;;;;;20.80;17.48;;;;;;;16.92;95.24;100587.06;5040490;28;20026;-70
2022/08/16 04:32:41;;;;;;;19.35;17.00;;;;;;;16.88;94.91;100575.00;5028494;28;20064;-70
2022/08/16 04:35:09;;;;;;;22.65;18.10;;;;;;;16.94;95.28;100582.56;5045159;28;20542;-71
2022/08/16 04:37:34;;;;;;;24.85;19.33;;;;;;;16.95;95.09;100582.47;5052288;28;20021;-71
2022/08/16 04:40:00;;;;;;;21.70;18.77;;;;;;;16.93;95.32;100583.50;5040515;28;20431;-71
2022/08/16 04:42:26;;;;;;;28.55;19.42;;;;;;;16.91;95.61;100588.84;5001947;28;1029247;-71
2022/08/16 04:44:52;;;;;;;24.65;19.67;;;;;;;16.94;95.43;100580.78;5050278;28;20029;-71
2022/08/16 04:47:17;;;;;;;27.08;20.83;;;;;;;16.98;95.46;100592.00;5053126;28;20540;-71
2022/08/16 04:49:43;;;;;;;24.33;20.33;;;;;;;16.99;95.00;100589.28;5048342;28;20109;-70
2022/08/16 04:52:08;;;;;;;25.27;20.20;;;;;;;17.00;95.92;100593.63;5053768;28;20170;-71
2022/08/16 04:54:34;;;;;;;33.75;21.05;;;;;;;17.00;95.51;100587.50;5048480;28;20029;-71
2022/08/16 04:56:59;;;;;;;23.08;20.38;;;;;;;17.03;95.12;100590.81;5023727;28;20398;-71
2022/08/16 04:59:24;;;;;;;26.50;19.95;;;;;;;17.09;95.24;100595.75;5049717;28;20025;-71
2022/08/16 05:01:55;;;;;;;26.77;20.92;;;;;;;17.08;95.75;100593.19;5045855;28;20033;-71
2022/08/16 05:04:21;;;;;;;27.88;20.30;;;;;;;17.16;94.93;100592.78;5046985;28;20443;-71
2022/08/16 05:06:46;;;;;;;25.45;20.38;;;;;;;17.17;95.50;100599.75;5047652;28;20120;-71
2022/08/16 05:09:11;;;;;;;23.42;20.83;;;;;;;17.22;95.49;100600.34;5039764;28;20099;-71
2022/08/16 05:11:37;;;;;;;23.52;19.33;;;;;;;17.29;94.60;100606.97;5037715;28;20480;-71
2022/08/16 05:14:03;;;;;;;22.27;18.85;;;;;;;17.31;94.58;100607.75;5035323;28;20099;-71
2022/08/16 05:16:29;;;;;;;27.08;20.13;;;;;;;17.32;94.21;100597.09;5046447;28;20029;-71
2022/08/16 05:18:57;;;;;;;24.95;18.70;;;;;;;17.42;94.14;100605.34;5041106;28;20029;-71
2022/08/16 05:21:23;;;;;;;24.80;18.45;;;;;;;17.46;93.90;100608.66;5047985;28;20044;-71
2022/08/16 05:23:50;;;;;;;21.27;18.52;;;;;;;17.50;93.45;100608.44;5036101;28;20025;-71
2022/08/16 05:26:16;;;;;;;21.15;17.30;;;;;;;17.53;92.66;100610.91;5045780;28;20500;-71
2022/08/16 05:28:41;;;;;;;19.77;17.40;;;;;;;17.59;92.74;100611.47;5037720;28;20025;-70
2022/08/16 05:31:06;;;;;;;21.50;18.27;;;;;;;17.63;92.63;100611.22;5041841;28;20033;-71
2022/08/16 05:33:32;;;;;;;21.45;18.27;;;;;;;17.64;92.27;100612.06;5037559;28;20040;-71
2022/08/16 05:35:57;;;;;;;22.23;18.65;;;;;;;17.69;91.41;100617.91;5036344;28;20034;-71
2022/08/16 05:38:26;;;;;;;23.58;18.15;;;;;;;17.74;91.55;100626.44;5034904;28;20032;-71
2022/08/16 05:40:56;;;;;;;26.20;18.63;;;;;;;17.75;91.94;100620.22;5042503;28;20037;-71
2022/08/16 05:43:22;;;;;;;22.92;18.20;;;;;;;17.74;91.99;100624.63;5039683;28;20044;-70
2022/08/16 05:45:47;;;;;;;22.13;17.38;;;;;;;17.80;91.32;100623.47;5052848;28;20469;-70
2022/08/16 05:48:13;;;;;;;21.50;17.23;;;;;;;17.84;91.42;100630.28;5044604;28;20499;-70
2022/08/16 05:50:38;;;;;;;22.30;17.75;;;;;;;17.88;90.60;100629.16;5044069;28;20086;-71
2022/08/16 05:53:04;;;;;;;20.30;17.13;;;;;;;17.92;90.67;100635.97;5043263;28;20024;-71
2022/08/16 05:55:29;;;;;;;23.80;17.92;;;;;;;17.99;90.32;100633.84;5046364;28;20029;-71
2022/08/16 05:57:54;;;;;;;20.75;17.30;;;;;;;18.05;89.38;100632.59;5042397;28;20018;-71
2022/08/16 06:00:20;;;;;;;22.83;17.95;;;;;;;18.08;89.46;100630.63;5030332;28;20507;-71
2022/08/16 06:02:45;;;;;;;22.27;17.55;;;;;;;18.14;89.16;100634.72;5032875;28;20032;-71
2022/08/16 06:05:11;;;;;;;22.95;17.42;;;;;;;18.22;88.47;100640.41;5034813;28;20548;-71
2022/08/16 06:07:36;;;;;;;20.70;18.02;;;;;;;18.23;87.72;100639.47;5039386;28;20021;-70
2022/08/16 06:10:03;;;;;;;18.73;16.75;;;;;;;18.34;88.50;100649.38;5037012;28;20551;-70
2022/08/16 06:12:29;;;;;;;19.38;17.17;;;;;;;18.38;88.26;100649.13;5041308;28;20029;-71
2022/08/16 06:15:09;;;;;;;24.83;16.75;;;;;;;18.43;87.50;100640.91;5050494;28;20025;-71
2022/08/16 06:17:36;;;;;;;19.33;16.08;;;;;;;18.53;86.91;100655.25;5036896;28;20041;-71
2022/08/16 06:20:04;;;;;;;21.75;16.77;;;;;;;18.58;86.13;100658.50;5039559;28;20038;-71
2022/08/16 06:22:29;;;;;;;22.00;16.63;;;;;;;18.66;86.34;100660.66;5038086;28;20053;-71
2022/08/16 06:24:54;;;;;;;22.33;17.38;;;;;;;18.72;85.67;100655.06;5043186;28;20064;-71
2022/08/16 06:27:19;;;;;;;19.75;16.63;;;;;;;18.80;84.75;100659.84;5046412;28;20025;-71
2022/08/16 06:29:45;;;;;;;21.23;16.27;;;;;;;18.83;85.56;100654.41;5035817;28;20024;-71
2022/08/16 06:32:10;;;;;;;20.27;16.17;;;;;;;18.91;83.84;100660.06;5031971;28;20033;-70
2022/08/16 06:34:36;;;;;;;23.88;17.75;;;;;;;18.97;83.14;100661.50;5034693;28;20027;-71
2022/08/16 06:37:02;;;;;;;22.08;17.05;;;;;;;19.03;82.74;100664.63;5041924;28;20048;-71
2022/08/16 06:39:28;;;;;;;20.60;17.55;;;;;;;19.13;81.84;100664.91;5040374;28;20111;-71
2022/08/16 06:41:53;;;;;;;124.82;22.20;;;;;;;19.27;82.33;100659.59;5040646;28;20099;-71
2022/08/16 06:44:18;;;;;;;20.08;16.58;;;;;;;19.31;82.59;100657.59;5044530;28;20104;-71
2022/08/16 06:46:43;;;;;;;21.73;17.98;;;;;;;19.35;80.94;100656.44;5051675;28;20029;-71
2022/08/16 06:49:10;;;;;;;20.35;17.02;;;;;;;19.38;81.82;100653.63;5041086;28;20026;-71
2022/08/16 06:51:37;;;;;;;19.70;16.75;;;;;;;19.44;79.99;100661.16;5034484;28;20034;-71
2022/08/16 06:54:04;;;;;;;23.55;16.83;;;;;;;19.50;80.37;100658.13;5032743;28;20029;-71
2022/08/16 06:56:29;;;;;;;18.85;15.73;;;;;;;19.58;78.68;100666.41;5041203;28;20033;-71
2022/08/16 06:58:55;;;;;;;23.55;16.42;;;;;;;19.64;79.66;100663.41;5052047;28;20136;-71
2022/08/16 07:01:21;;;;;;;21.67;17.63;;;;;;;19.67;79.74;100664.19;5035651;28;20384;-71
2022/08/16 07:03:47;;;;;;;18.65;15.90;;;;;;;19.72;79.38;100662.94;5033256;28;20159;-71
2022/08/16 07:06:12;;;;;;;24.38;16.15;;;;;;;19.81;78.57;100662.31;5044701;28;20139;-75
2022/08/16 07:08:41;;;;;;;19.63;17.20;;;;;;;19.90;78.35;100676.75;5050953;28;20100;-74
2022/08/16 07:11:07;;;;;;;20.50;17.00;;;;;;;19.97;77.48;100672.75;5042812;28;20464;-73
2022/08/16 07:13:33;;;;;;;24.40;15.25;;;;;;;20.03;78.53;100677.66;5041847;28;20029;-74
2022/08/16 07:15:59;;;;;;;17.50;15.70;;;;;;;20.09;77.93;100679.06;5051750;28;20032;-74
2022/08/16 07:18:25;;;;;;;18.25;15.75;;;;;;;20.15;77.50;100681.31;5045226;28;20492;-74
2022/08/16 07:20:52;;;;;;;20.27;17.25;;;;;;;20.20;77.02;100665.94;5046421;28;20041;-73
2022/08/16 07:23:18;;;;;;;22.95;16.40;;;;;;;20.36;77.07;100681.66;5050927;28;20465;-73
2022/08/16 07:25:43;;;;;;;21.00;15.40;;;;;;;20.45;77.26;100675.75;5049177;28;20024;-73
2022/08/16 07:28:11;;;;;;;18.95;14.40;;;;;;;20.48;75.89;100672.06;5049481;28;20424;-74
2022/08/16 07:30:38;;;;;;;17.50;15.73;;;;;;;20.63;75.40;100686.91;5047872;28;20037;-73
2022/08/16 07:33:04;;;;;;;22.85;17.42;;;;;;;20.74;74.59;100684.41;5035259;28;20032;-73
2022/08/16 07:35:30;;;;;;;19.88;15.70;;;;;;;20.81;74.85;100685.66;5043325;28;20087;-73
2022/08/16 07:37:56;;;;;;;19.33;17.13;;;;;;;20.88;74.27;100674.66;5046558;28;20029;-73
2022/08/16 07:40:21;;;;;;;17.25;15.55;;;;;;;20.98;73.81;100694.25;5050793;28;20032;-74
2022/08/16 07:42:47;;;;;;;19.05;14.80;;;;;;;21.08;74.67;100694.47;5038283;28;20049;-73
2022/08/16 07:45:13;;;;;;;21.02;16.77;;;;;;;21.15;72.84;100693.91;5046024;28;20489;-73
2022/08/16 07:47:38;;;;;;;19.27;15.90;;;;;;;21.19;72.73;100700.72;5029511;28;20477;-74
2022/08/16 07:50:05;;;;;;;25.95;16.92;;;;;;;21.20;72.41;100697.13;5036606;28;20465;-73
2022/08/16 07:52:30;;;;;;;23.27;16.15;;;;;;;21.27;72.04;100693.06;5050444;28;20066;-73
2022/08/16 07:54:57;;;;;;;18.83;14.85;;;;;;;21.38;71.76;100699.44;5036101;28;20022;-73
2022/08/16 07:57:22;;;;;;;18.73;15.45;;;;;;;21.38;70.23;100699.44;5043843;28;20024;-73
2022/08/16 07:59:47;;;;;;;16.60;14.07;;;;;;;21.51;69.51;100697.59;5050958;28;20127;-73
2022/08/16 08:02:14;;;;;;;20.33;14.30;;;;;;;21.63;69.41;100699.38;5038732;28;20025;-73
2022/08/16 08:04:40;;;;;;;16.70;14.07;;;;;;;21.69;68.86;100706.06;5044142;28;20511;-73
2022/08/16 08:07:05;;;;;;;17.95;14.52;;;;;;;21.72;68.52;100703.19;5042399;28;20029;-73
2022/08/16 08:09:31;;;;;;;16.27;12.27;;;;;;;21.78;69.96;100705.41;5037309;28;20041;-73
2022/08/16 08:11:57;;;;;;;18.40;13.75;;;;;;;21.82;67.97;100706.88;5032866;28;20382;-73
2022/08/16 08:14:22;;;;;;;17.45;15.05;;;;;;;21.87;67.42;100706.53;5046265;28;20024;-73
2022/08/16 08:16:48;;;;;;;21.63;14.65;;;;;;;22.02;67.50;100716.03;5028403;28;20358;-73
2022/08/16 08:19:13;;;;;;;16.55;14.40;;;;;;;22.07;67.21;100713.03;5050939;28;20032;-73
2022/08/16 08:21:41;;;;;;;15.25;13.40;;;;;;;22.14;67.53;100723.09;5050281;28;20029;-73
2022/08/16 08:24:08;;;;;;;15.50;13.32;;;;;;;22.23;66.23;100715.44;5052929;28;20025;-73
2022/08/16 08:26:34;;;;;;;15.65;13.98;;;;;;;22.30;64.82;100721.97;5054115;28;20036;-73
2022/08/16 08:29:00;;;;;;;21.02;13.25;;;;;;;22.40;64.40;100720.34;5053881;28;20057;-73
2022/08/16 08:31:26;;;;;;;15.40;12.98;;;;;;;22.48;63.64;100711.78;5051843;28;20052;-73
2022/08/16 08:33:55;;;;;;;14.65;13.13;;;;;;;22.63;63.17;100718.63;5051162;28;20104;-73
2022/08/16 08:36:27;;;;;;;16.27;14.35;;;;;;;22.77;62.74;100715.75;5049768;28;20016;-74
2022/08/16 08:38:52;;;;;;;14.82;12.88;;;;;;;22.84;62.11;100710.78;5037681;28;20033;-73
2022/08/16 08:41:18;;;;;;;16.98;12.77;;;;;;;23.03;62.24;100719.06;5047731;28;20029;-73
2022/08/16 08:43:44;;;;;;;15.45;12.65;;;;;;;23.16;61.65;100726.94;5044527;28;20060;-73
2022/08/16 08:46:09;;;;;;;17.63;12.45;;;;;;;23.27;60.14;100721.63;5036163;28;20060;-75
2022/08/16 08:48:35;;;;;;;14.93;10.65;;;;;;;23.45;60.42;100726.47;5039254;28;20040;-74
2022/08/16 08:51:02;;;;;;;14.85;12.25;;;;;;;23.48;57.22;100724.41;5047803;28;20438;-74
2022/08/16 08:53:27;;;;;;;13.88;10.60;;;;;;;23.50;57.50;100722.47;5052353;28;20033;-74
2022/08/16 08:55:52;;;;;;;14.52;10.88;;;;;;;23.64;58.84;100723.16;5036786;28;20051;-74
2022/08/16 08:58:18;;;;;;;13.32;11.20;;;;;;;23.84;57.96;100725.13;5053308;28;20483;-74
2022/08/16 09:00:43;;;;;;;15.07;11.93;;;;;;;23.95;56.93;100722.41;5040777;28;20036;-74
2022/08/16 09:03:08;;;;;;;12.02;10.70;;;;;;;24.06;56.94;100730.38;5047642;28;20029;-73
2022/08/16 09:05:35;;;;;;;14.00;9.98;;;;;;;24.18;55.96;100738.34;5033322;28;20025;-73
2022/08/16 09:08:00;;;;;;;10.50;9.38;;;;;;;24.32;56.93;100731.84;5048715;28;20040;-73
2022/08/16 09:10:25;;;;;;;12.02;9.20;;;;;;;24.38;54.67;100734.03;5051282;28;20519;-73
2022/08/16 09:12:51;;;;;;;11.73;8.75;;;;;;;24.52;55.29;100737.28;5049451;28;20028;-73
2022/08/16 09:15:16;;;;;;;11.27;9.75;;;;;;;24.49;53.67;100733.97;5042671;28;20029;-73
2022/08/16 09:17:42;;;;;;;9.65;8.52;;;;;;;24.46;54.54;100742.22;5053185;28;20124;-73
2022/08/16 09:20:09;;;;;;;11.25;9.45;;;;;;;24.49;54.08;100748.19;5053086;28;20025;-74
2022/08/16 09:22:36;;;;;;;12.80;9.13;;;;;;;24.57;53.30;100744.03;5042007;28;20488;-74
2022/08/16 09:25:02;;;;;;;12.52;9.75;;;;;;;24.68;52.68;100735.94;5040131;28;20025;-74
2022/08/16 09:27:28;;;;;;;9.07;8.18;;;;;;;24.76;51.78;100728.16;5052198;28;20130;-74
2022/08/16 09:29:54;;;;;;;8.60;6.93;;;;;;;25.02;51.56;100746.44;5044007;28;20083;-74
2022/08/16 09:32:19;;;;;;;7.88;7.07;;;;;;;25.17;50.44;100735.28;5052556;28;20045;-74
2022/08/16 09:34:45;;;;;;;9.18;8.25;;;;;;;25.30;49.36;100743.09;5034804;28;20022;-74
2022/08/16 09:37:12;;;;;;;10.30;6.43;;;;;;;25.32;50.84;100734.97;5041894;28;20404;-74
2022/08/16 09:39:37;;;;;;;9.30;6.80;;;;;;;25.41;49.80;100740.34;5042282;28;20051;-74
2022/08/16 09:42:03;;;;;;;12.55;7.70;;;;;;;25.51;49.04;100734.19;5052625;28;20469;-74
2022/08/16 09:44:29;;;;;;;7.57;6.57;;;;;;;25.63;49.55;100728.59;5043553;28;20052;-73
2022/08/16 09:46:55;;;;;;;9.30;6.68;;;;;;;25.79;49.52;100732.56;5041310;28;20373;-73
2022/08/16 09:49:22;;;;;;;10.57;6.90;;;;;;;25.95;47.92;100732.91;5051787;28;20024;-73
2022/08/16 09:51:53;;;;;;;10.80;7.68;;;;;;;26.03;46.54;100734.88;5051697;28;20075;-71
2022/08/16 09:54:21;;;;;;;13.68;7.22;;;;;;;26.17;47.35;100725.66;5036951;28;20030;-70
2022/08/16 09:56:48;;;;;;;11.75;6.32;;;;;;;26.29;45.28;100741.41;5044420;28;20387;-70
2022/08/16 09:59:14;;;;;;;8.10;5.45;;;;;;;26.41;44.05;100742.09;5035795;28;20108;-70
2022/08/16 10:01:41;;;;;;;6.93;5.88;;;;;;;26.56;45.46;100738.06;5052220;28;20112;-70
2022/08/16 10:04:07;;;;;;;7.95;5.40;;;;;;;26.61;47.80;100746.47;5052130;28;20107;-70
2022/08/16 10:06:35;;;;;;;11.55;5.70;;;;;;;26.80;44.71;100737.59;5044844;28;20980;-70
2022/08/16 10:09:05;;;;;;;7.53;6.20;;;;;;;26.77;45.96;100751.25;5041629;28;20045;-70
2022/08/16 10:14:14;;;;;;;12.95;7.30;;;;;;;26.93;43.34;100734.59;5047282;28;20103;-70
2022/08/16 10:16:39;;;;;;;8.77;5.93;;;;;;;27.12;43.52;100736.38;5051910;28;20415;-70
2022/08/16 10:19:05;;;;;;;9.50;6.18;;;;;;;27.19;42.87;100745.53;5040292;28;20033;-70
2022/08/16 10:21:30;;;;;;;8.82;6.60;;;;;;;27.30;43.06;100741.84;5036120;28;20473;-70
2022/08/16 10:23:56;;;;;;;8.57;5.82;;;;;;;27.49;42.04;100730.22;5043551;28;20432;-70
2022/08/16 10:26:23;;;;;;;10.48;5.75;;;;;;;27.65;39.42;100737.59;5046414;28;20028;-70
2022/08/16 10:28:49;;;;;;;8.00;5.60;;;;;;;27.72;41.90;100741.34;5052041;28;20025;-70
2022/08/16 10:31:14;;;;;;;7.35;5.50;;;;;;;27.85;41.42;100749.06;5050348;28;20037;-70
2022/08/16 10:33:40;;;;;;;6.03;5.38;;;;;;;27.89;38.98;100742.41;5051886;28;20021;-70
2022/08/16 10:36:06;;;;;;;9.98;5.85;;;;;;;28.04;38.99;100746.28;5042013;28;20018;-70
2022/08/16 10:38:33;;;;;;;7.13;5.60;;;;;;;28.18;40.88;100737.69;5047745;28;20496;-70
2022/08/16 10:40:59;;;;;;;11.48;5.50;;;;;;;28.47;37.86;100737.50;5051836;28;20074;-71
2022/08/16 10:43:25;;;;;;;7.85;5.68;;;;;;;28.50;37.19;100754.28;5051230;28;20071;-71
2022/08/16 10:45:50;;;;;;;6.10;5.60;;;;;;;28.60;38.85;100742.47;5051398;28;20421;-71
2022/08/16 10:48:17;;;;;;;11.30;5.60;;;;;;;28.86;38.43;100747.00;5051165;28;20287;-70
2022/08/16 10:50:42;;;;;;;8.13;5.60;;;;;;;28.98;36.95;100743.06;5051983;28;20086;-70
2022/08/16 10:53:08;;;;;;;5.63;5.13;;;;;;;29.31;37.73;100740.59;5041325;28;20104;-70
2022/08/16 10:55:35;;;;;;;6.38;5.05;;;;;;;29.37;37.06;100746.19;5043009;28;20488;-70
2022/08/16 10:58:06;;;;;;;7.60;5.38;;;;;;;29.31;35.20;100746.81;5051983;28;20017;-70
2022/08/16 11:00:33;;;;;;;6.13;5.30;;;;;;;29.22;35.54;100749.63;5050630;28;20384;-70
2022/08/16 11:03:01;;;;;;;6.50;5.85;;;;;;;29.14;36.86;100753.09;5051423;28;20075;-71
2022/08/16 11:05:27;;;;;;;6.43;5.20;;;;;;;29.21;37.59;100756.00;5051262;28;20393;-70
2022/08/16 11:07:52;;;;;;;9.48;4.97;;;;;;;29.21;35.97;100748.78;5050969;28;20023;-70
2022/08/16 11:10:27;;;;;;;12.00;5.00;;;;;;;29.29;35.92;100756.03;5042359;28;20038;-71
2022/08/16 11:12:52;;;;;;;6.00;5.50;;;;;;;29.33;35.56;100754.69;5038842;28;20017;-71